sensor_id;sensor_type;location;lat;lon;timestamp;P1;durP1;ratioP1;P2;durP2;ratioP2
24685;SDS011;12804;51.176;4.452;2022-07-03T00:02:08;2.72;;;1.05;;
24685;SDS011;12804;51.176;4.452;2022-07-03T00:04:35;1.50;;;0.90;;
24685;SDS011;12804;51.176;4.452;2022-07-03T00:07:00;3.85;;;1.02;;
24685;SDS011;12804;51.176;4.452;2022-07-03T00:09:26;2.28;;;0.80;;
24685;SDS011;12804;51.176;4.452;2022-07-03T00:11:52;1.48;;;0.93;;
24685;SDS011;12804;51.176;4.452;2022-07-03T00:14:18;1.90;;;0.90;;
24685;SDS011;12804;51.176;4.452;2022-07-03T00:16:44;2.80;;;0.93;;
24685;SDS011;12804;51.176;4.452;2022-07-03T00:19:10;1.25;;;0.73;;
24685;SDS011;12804;51.176;4.452;2022-07-03T00:22:18;2.83;;;0.75;;
24685;SDS011;12804;51.176;4.452;2022-07-03T00:27:15;1.83;;;0.80;;
24685;SDS011;12804;51.176;4.452;2022-07-03T00:29:43;3.22;;;1.13;;
24685;SDS011;12804;51.176;4.452;2022-07-03T00:32:11;3.70;;;0.95;;
24685;SDS011;12804;51.176;4.452;2022-07-03T00:34:39;0.80;;;0.75;;
24685;SDS011;12804;51.176;4.452;2022-07-03T00:37:07;4.22;;;0.80;;
24685;SDS011;12804;51.176;4.452;2022-07-03T00:39:38;1.27;;;0.73;;
24685;SDS011;12804;51.176;4.452;2022-07-03T00:42:06;4.20;;;1.00;;
24685;SDS011;12804;51.176;4.452;2022-07-03T00:44:34;2.55;;;1.05;;
24685;SDS011;12804;51.176;4.452;2022-07-03T00:47:09;2.80;;;0.98;;
24685;SDS011;12804;51.176;4.452;2022-07-03T00:49:37;2.83;;;1.10;;
24685;SDS011;12804;51.176;4.452;2022-07-03T00:52:04;2.58;;;1.33;;
24685;SDS011;12804;51.176;4.452;2022-07-03T00:54:34;7.35;;;1.60;;
24685;SDS011;12804;51.176;4.452;2022-07-03T00:57:01;6.18;;;1.40;;
24685;SDS011;12804;51.176;4.452;2022-07-03T00:59:28;2.38;;;1.30;;
24685;SDS011;12804;51.176;4.452;2022-07-03T01:01:59;3.70;;;1.20;;
24685;SDS011;12804;51.176;4.452;2022-07-03T01:04:37;3.53;;;1.73;;
24685;SDS011;12804;51.176;4.452;2022-07-03T01:07:11;4.32;;;1.35;;
24685;SDS011;12804;51.176;4.452;2022-07-03T01:09:55;7.15;;;1.60;;
24685;SDS011;12804;51.176;4.452;2022-07-03T01:12:46;4.47;;;1.30;;
24685;SDS011;12804;51.176;4.452;2022-07-03T01:15:50;3.67;;;1.30;;
24685;SDS011;12804;51.176;4.452;2022-07-03T01:21:15;3.35;;;1.17;;
24685;SDS011;12804;51.176;4.452;2022-07-03T01:27:10;4.70;;;1.38;;
24685;SDS011;12804;51.176;4.452;2022-07-03T01:30:08;4.75;;;1.50;;
24685;SDS011;12804;51.176;4.452;2022-07-03T01:32:38;5.43;;;1.42;;
24685;SDS011;12804;51.176;4.452;2022-07-03T01:35:07;3.30;;;1.40;;
24685;SDS011;12804;51.176;4.452;2022-07-03T01:37:36;7.13;;;1.65;;
24685;SDS011;12804;51.176;4.452;2022-07-03T01:40:05;3.67;;;1.25;;
24685;SDS011;12804;51.176;4.452;2022-07-03T01:42:33;2.67;;;1.38;;
24685;SDS011;12804;51.176;4.452;2022-07-03T01:45:06;2.38;;;1.15;;
24685;SDS011;12804;51.176;4.452;2022-07-03T01:47:34;4.35;;;1.30;;
24685;SDS011;12804;51.176;4.452;2022-07-03T01:50:02;3.28;;;1.30;;
24685;SDS011;12804;51.176;4.452;2022-07-03T01:52:29;3.45;;;1.27;;
24685;SDS011;12804;51.176;4.452;2022-07-03T01:54:59;3.95;;;1.45;;
24685;SDS011;12804;51.176;4.452;2022-07-03T01:57:36;2.20;;;1.17;;
24685;SDS011;12804;51.176;4.452;2022-07-03T02:00:11;4.75;;;1.60;;
24685;SDS011;12804;51.176;4.452;2022-07-03T02:02:40;4.32;;;1.50;;
24685;SDS011;12804;51.176;4.452;2022-07-03T02:05:12;5.28;;;1.50;;
24685;SDS011;12804;51.176;4.452;2022-07-03T02:10:34;3.50;;;1.30;;
24685;SDS011;12804;51.176;4.452;2022-07-03T02:13:07;2.83;;;1.27;;
24685;SDS011;12804;51.176;4.452;2022-07-03T02:15:37;3.03;;;1.20;;
24685;SDS011;12804;51.176;4.452;2022-07-03T02:21:10;2.78;;;1.30;;
24685;SDS011;12804;51.176;4.452;2022-07-03T02:24:27;2.72;;;1.20;;
24685;SDS011;12804;51.176;4.452;2022-07-03T02:27:03;1.85;;;1.10;;
24685;SDS011;12804;51.176;4.452;2022-07-03T02:29:34;3.05;;;1.27;;
24685;SDS011;12804;51.176;4.452;2022-07-03T02:32:03;2.38;;;1.23;;
24685;SDS011;12804;51.176;4.452;2022-07-03T02:34:35;4.15;;;1.02;;
24685;SDS011;12804;51.176;4.452;2022-07-03T02:37:07;2.47;;;1.10;;
24685;SDS011;12804;51.176;4.452;2022-07-03T02:39:45;2.53;;;1.25;;
24685;SDS011;12804;51.176;4.452;2022-07-03T02:42:39;4.65;;;1.25;;
24685;SDS011;12804;51.176;4.452;2022-07-03T02:45:12;3.33;;;1.20;;
24685;SDS011;12804;51.176;4.452;2022-07-03T02:50:22;3.22;;;1.30;;
24685;SDS011;12804;51.176;4.452;2022-07-03T02:56:39;3.60;;;1.58;;
24685;SDS011;12804;51.176;4.452;2022-07-03T02:58:52;2.60;;;1.23;;
24685;SDS011;12804;51.176;4.452;2022-07-03T03:01:54;3.30;;;1.30;;
24685;SDS011;12804;51.176;4.452;2022-07-03T03:04:29;4.20;;;1.45;;
24685;SDS011;12804;51.176;4.452;2022-07-03T03:07:16;3.28;;;1.38;;
24685;SDS011;12804;51.176;4.452;2022-07-03T03:09:47;3.08;;;1.35;;
24685;SDS011;12804;51.176;4.452;2022-07-03T03:12:13;3.30;;;1.33;;
24685;SDS011;12804;51.176;4.452;2022-07-03T03:14:43;2.55;;;1.30;;
24685;SDS011;12804;51.176;4.452;2022-07-03T03:17:25;1.92;;;1.02;;
24685;SDS011;12804;51.176;4.452;2022-07-03T03:19:57;1.95;;;1.05;;
24685;SDS011;12804;51.176;4.452;2022-07-03T03:24:57;2.42;;;1.33;;
24685;SDS011;12804;51.176;4.452;2022-07-03T03:27:23;3.42;;;1.27;;
24685;SDS011;12804;51.176;4.452;2022-07-03T03:29:49;1.88;;;1.20;;
24685;SDS011;12804;51.176;4.452;2022-07-03T03:32:16;3.22;;;1.00;;
24685;SDS011;12804;51.176;4.452;2022-07-03T03:34:43;2.45;;;1.10;;
24685;SDS011;12804;51.176;4.452;2022-07-03T03:37:11;2.10;;;1.00;;
24685;SDS011;12804;51.176;4.452;2022-07-03T03:39:38;3.83;;;1.60;;
24685;SDS011;12804;51.176;4.452;2022-07-03T03:42:04;3.47;;;1.40;;
24685;SDS011;12804;51.176;4.452;2022-07-03T03:44:30;2.90;;;1.23;;
24685;SDS011;12804;51.176;4.452;2022-07-03T03:46:56;1.65;;;1.08;;
24685;SDS011;12804;51.176;4.452;2022-07-03T03:49:22;3.80;;;0.98;;
24685;SDS011;12804;51.176;4.452;2022-07-03T03:51:48;2.42;;;0.90;;
24685;SDS011;12804;51.176;4.452;2022-07-03T03:54:14;3.35;;;0.85;;
24685;SDS011;12804;51.176;4.452;2022-07-03T03:56:40;2.03;;;0.90;;
24685;SDS011;12804;51.176;4.452;2022-07-03T03:59:05;2.60;;;0.95;;
24685;SDS011;12804;51.176;4.452;2022-07-03T04:01:31;3.00;;;1.08;;
24685;SDS011;12804;51.176;4.452;2022-07-03T04:03:57;2.15;;;1.00;;
24685;SDS011;12804;51.176;4.452;2022-07-03T04:06:24;2.75;;;1.10;;
24685;SDS011;12804;51.176;4.452;2022-07-03T04:08:50;1.95;;;0.77;;
24685;SDS011;12804;51.176;4.452;2022-07-03T04:11:16;1.55;;;0.88;;
24685;SDS011;12804;51.176;4.452;2022-07-03T04:13:42;2.67;;;0.90;;
24685;SDS011;12804;51.176;4.452;2022-07-03T04:16:08;1.80;;;1.05;;
24685;SDS011;12804;51.176;4.452;2022-07-03T04:18:34;1.85;;;0.90;;
24685;SDS011;12804;51.176;4.452;2022-07-03T04:21:00;3.00;;;0.93;;
24685;SDS011;12804;51.176;4.452;2022-07-03T04:23:26;1.60;;;0.90;;
24685;SDS011;12804;51.176;4.452;2022-07-03T04:25:52;1.50;;;1.00;;
24685;SDS011;12804;51.176;4.452;2022-07-03T04:28:17;2.15;;;0.77;;
24685;SDS011;12804;51.176;4.452;2022-07-03T04:30:43;2.63;;;0.77;;
24685;SDS011;12804;51.176;4.452;2022-07-03T04:33:09;2.67;;;1.00;;
24685;SDS011;12804;51.176;4.452;2022-07-03T04:35:34;1.52;;;0.88;;
24685;SDS011;12804;51.176;4.452;2022-07-03T04:38:00;2.95;;;0.93;;
24685;SDS011;12804;51.176;4.452;2022-07-03T04:40:26;4.88;;;1.35;;
24685;SDS011;12804;51.176;4.452;2022-07-03T04:42:52;3.47;;;1.40;;
24685;SDS011;12804;51.176;4.452;2022-07-03T04:45:18;2.22;;;1.20;;
24685;SDS011;12804;51.176;4.452;2022-07-03T04:47:44;1.63;;;1.05;;
24685;SDS011;12804;51.176;4.452;2022-07-03T04:50:09;2.67;;;1.25;;
24685;SDS011;12804;51.176;4.452;2022-07-03T04:52:35;2.10;;;1.40;;
24685;SDS011;12804;51.176;4.452;2022-07-03T04:55:01;2.47;;;1.60;;
24685;SDS011;12804;51.176;4.452;2022-07-03T04:57:27;2.63;;;1.25;;
24685;SDS011;12804;51.176;4.452;2022-07-03T04:59:53;2.95;;;1.50;;
24685;SDS011;12804;51.176;4.452;2022-07-03T05:02:19;3.22;;;1.73;;
24685;SDS011;12804;51.176;4.452;2022-07-03T05:04:45;3.92;;;1.60;;
24685;SDS011;12804;51.176;4.452;2022-07-03T05:07:11;3.15;;;1.70;;
24685;SDS011;12804;51.176;4.452;2022-07-03T05:09:37;5.70;;;2.17;;
24685;SDS011;12804;51.176;4.452;2022-07-03T05:12:03;2.28;;;1.80;;
24685;SDS011;12804;51.176;4.452;2022-07-03T05:14:29;3.83;;;2.50;;
24685;SDS011;12804;51.176;4.452;2022-07-03T05:16:55;4.90;;;2.58;;
24685;SDS011;12804;51.176;4.452;2022-07-03T05:19:20;4.05;;;2.70;;
24685;SDS011;12804;51.176;4.452;2022-07-03T05:21:46;3.72;;;3.00;;
24685;SDS011;12804;51.176;4.452;2022-07-03T05:24:12;5.28;;;3.33;;
24685;SDS011;12804;51.176;4.452;2022-07-03T05:26:38;5.13;;;3.20;;
24685;SDS011;12804;51.176;4.452;2022-07-03T05:29:03;4.15;;;3.00;;
24685;SDS011;12804;51.176;4.452;2022-07-03T05:31:29;4.40;;;3.30;;
24685;SDS011;12804;51.176;4.452;2022-07-03T05:33:55;4.45;;;3.28;;
24685;SDS011;12804;51.176;4.452;2022-07-03T05:36:21;4.00;;;3.30;;
24685;SDS011;12804;51.176;4.452;2022-07-03T05:38:47;5.10;;;3.70;;
24685;SDS011;12804;51.176;4.452;2022-07-03T05:41:31;5.22;;;3.30;;
24685;SDS011;12804;51.176;4.452;2022-07-03T05:43:57;4.25;;;3.85;;
24685;SDS011;12804;51.176;4.452;2022-07-03T05:46:23;5.93;;;3.97;;
24685;SDS011;12804;51.176;4.452;2022-07-03T05:48:48;4.28;;;3.75;;
24685;SDS011;12804;51.176;4.452;2022-07-03T05:51:14;5.00;;;3.55;;
24685;SDS011;12804;51.176;4.452;2022-07-03T05:53:40;7.13;;;4.25;;
24685;SDS011;12804;51.176;4.452;2022-07-03T05:56:06;5.78;;;4.38;;
24685;SDS011;12804;51.176;4.452;2022-07-03T05:58:31;7.63;;;4.00;;
24685;SDS011;12804;51.176;4.452;2022-07-03T06:00:57;5.40;;;4.10;;
24685;SDS011;12804;51.176;4.452;2022-07-03T06:03:23;5.03;;;4.15;;
24685;SDS011;12804;51.176;4.452;2022-07-03T06:05:49;6.18;;;4.20;;
24685;SDS011;12804;51.176;4.452;2022-07-03T06:08:14;5.63;;;4.00;;
24685;SDS011;12804;51.176;4.452;2022-07-03T06:10:40;4.60;;;4.07;;
24685;SDS011;12804;51.176;4.452;2022-07-03T06:13:06;5.05;;;4.00;;
24685;SDS011;12804;51.176;4.452;2022-07-03T06:15:32;7.60;;;3.88;;
24685;SDS011;12804;51.176;4.452;2022-07-03T06:17:58;6.53;;;3.58;;
24685;SDS011;12804;51.176;4.452;2022-07-03T06:20:23;7.85;;;4.28;;
24685;SDS011;12804;51.176;4.452;2022-07-03T06:22:49;4.53;;;4.05;;
24685;SDS011;12804;51.176;4.452;2022-07-03T06:25:15;5.60;;;4.47;;
24685;SDS011;12804;51.176;4.452;2022-07-03T06:27:41;6.80;;;4.38;;
24685;SDS011;12804;51.176;4.452;2022-07-03T06:30:08;6.10;;;4.20;;
24685;SDS011;12804;51.176;4.452;2022-07-03T06:32:34;8.15;;;3.85;;
24685;SDS011;12804;51.176;4.452;2022-07-03T06:35:00;5.97;;;4.03;;
24685;SDS011;12804;51.176;4.452;2022-07-03T06:37:26;6.03;;;4.43;;
24685;SDS011;12804;51.176;4.452;2022-07-03T06:39:52;7.55;;;4.43;;
24685;SDS011;12804;51.176;4.452;2022-07-03T06:42:18;12.52;;;5.07;;
24685;SDS011;12804;51.176;4.452;2022-07-03T06:44:46;5.95;;;4.10;;
24685;SDS011;12804;51.176;4.452;2022-07-03T06:47:12;5.60;;;4.40;;
24685;SDS011;12804;51.176;4.452;2022-07-03T06:49:38;7.07;;;3.60;;
24685;SDS011;12804;51.176;4.452;2022-07-03T06:52:03;6.95;;;4.20;;
24685;SDS011;12804;51.176;4.452;2022-07-03T06:54:29;6.05;;;3.67;;
24685;SDS011;12804;51.176;4.452;2022-07-03T06:56:55;5.25;;;4.18;;
24685;SDS011;12804;51.176;4.452;2022-07-03T06:59:21;5.88;;;3.80;;
24685;SDS011;12804;51.176;4.452;2022-07-03T07:01:47;6.30;;;3.30;;
24685;SDS011;12804;51.176;4.452;2022-07-03T07:04:12;4.80;;;3.50;;
24685;SDS011;12804;51.176;4.452;2022-07-03T07:06:38;5.50;;;3.45;;
24685;SDS011;12804;51.176;4.452;2022-07-03T07:09:04;6.90;;;3.45;;
24685;SDS011;12804;51.176;4.452;2022-07-03T07:11:30;5.75;;;3.53;;
24685;SDS011;12804;51.176;4.452;2022-07-03T07:13:56;5.90;;;3.92;;
24685;SDS011;12804;51.176;4.452;2022-07-03T07:16:21;6.55;;;3.30;;
24685;SDS011;12804;51.176;4.452;2022-07-03T07:18:47;5.80;;;3.72;;
24685;SDS011;12804;51.176;4.452;2022-07-03T07:21:13;5.22;;;3.65;;
24685;SDS011;12804;51.176;4.452;2022-07-03T07:23:39;4.55;;;2.88;;
24685;SDS011;12804;51.176;4.452;2022-07-03T07:26:05;5.68;;;3.60;;
24685;SDS011;12804;51.176;4.452;2022-07-03T07:28:31;5.55;;;3.72;;
24685;SDS011;12804;51.176;4.452;2022-07-03T07:30:58;4.93;;;3.45;;
24685;SDS011;12804;51.176;4.452;2022-07-03T07:33:24;3.50;;;3.15;;
24685;SDS011;12804;51.176;4.452;2022-07-03T07:35:50;5.55;;;3.70;;
24685;SDS011;12804;51.176;4.452;2022-07-03T07:38:16;3.78;;;3.30;;
24685;SDS011;12804;51.176;4.452;2022-07-03T07:40:43;7.28;;;3.72;;
24685;SDS011;12804;51.176;4.452;2022-07-03T07:43:09;4.20;;;3.15;;
24685;SDS011;12804;51.176;4.452;2022-07-03T07:45:35;5.30;;;3.63;;
24685;SDS011;12804;51.176;4.452;2022-07-03T07:48:01;6.18;;;3.28;;
24685;SDS011;12804;51.176;4.452;2022-07-03T07:50:27;6.85;;;3.10;;
24685;SDS011;12804;51.176;4.452;2022-07-03T07:52:53;5.25;;;3.60;;
24685;SDS011;12804;51.176;4.452;2022-07-03T07:55:19;5.20;;;3.30;;
24685;SDS011;12804;51.176;4.452;2022-07-03T07:57:45;4.70;;;2.95;;
24685;SDS011;12804;51.176;4.452;2022-07-03T08:00:16;7.28;;;2.80;;
24685;SDS011;12804;51.176;4.452;2022-07-03T08:02:43;3.72;;;2.40;;
24685;SDS011;12804;51.176;4.452;2022-07-03T08:05:29;5.43;;;2.70;;
24685;SDS011;12804;51.176;4.452;2022-07-03T08:10:35;5.30;;;2.00;;
24685;SDS011;12804;51.176;4.452;2022-07-03T08:13:06;2.95;;;1.77;;
24685;SDS011;12804;51.176;4.452;2022-07-03T08:15:33;5.53;;;1.30;;
24685;SDS011;12804;51.176;4.452;2022-07-03T08:17:59;4.63;;;1.92;;
24685;SDS011;12804;51.176;4.452;2022-07-03T08:20:25;3.60;;;1.90;;
24685;SDS011;12804;51.176;4.452;2022-07-03T08:22:51;2.53;;;1.50;;
24685;SDS011;12804;51.176;4.452;2022-07-03T08:25:17;2.40;;;1.50;;
24685;SDS011;12804;51.176;4.452;2022-07-03T08:27:43;2.17;;;1.77;;
24685;SDS011;12804;51.176;4.452;2022-07-03T08:30:09;2.28;;;1.50;;
24685;SDS011;12804;51.176;4.452;2022-07-03T08:32:35;2.30;;;1.40;;
24685;SDS011;12804;51.176;4.452;2022-07-03T08:35:01;2.72;;;1.40;;
24685;SDS011;12804;51.176;4.452;2022-07-03T08:37:28;2.88;;;1.48;;
24685;SDS011;12804;51.176;4.452;2022-07-03T08:39:54;3.50;;;1.65;;
24685;SDS011;12804;51.176;4.452;2022-07-03T08:42:19;3.45;;;1.75;;
24685;SDS011;12804;51.176;4.452;2022-07-03T08:44:47;3.40;;;1.70;;
24685;SDS011;12804;51.176;4.452;2022-07-03T08:47:15;1.67;;;1.35;;
24685;SDS011;12804;51.176;4.452;2022-07-03T08:49:43;4.30;;;1.98;;
24685;SDS011;12804;51.176;4.452;2022-07-03T08:52:09;4.20;;;1.45;;
24685;SDS011;12804;51.176;4.452;2022-07-03T08:54:36;2.60;;;1.40;;
24685;SDS011;12804;51.176;4.452;2022-07-03T08:57:03;2.70;;;1.45;;
24685;SDS011;12804;51.176;4.452;2022-07-03T08:59:36;3.40;;;1.38;;
24685;SDS011;12804;51.176;4.452;2022-07-03T09:02:03;4.53;;;1.48;;
24685;SDS011;12804;51.176;4.452;2022-07-03T09:04:30;4.10;;;1.55;;
24685;SDS011;12804;51.176;4.452;2022-07-03T09:06:59;4.28;;;1.58;;
24685;SDS011;12804;51.176;4.452;2022-07-03T09:09:25;2.67;;;1.63;;
24685;SDS011;12804;51.176;4.452;2022-07-03T09:11:52;4.88;;;1.70;;
24685;SDS011;12804;51.176;4.452;2022-07-03T09:14:18;2.30;;;1.20;;
24685;SDS011;12804;51.176;4.452;2022-07-03T09:16:45;5.25;;;1.33;;
24685;SDS011;12804;51.176;4.452;2022-07-03T09:19:11;1.58;;;0.98;;
24685;SDS011;12804;51.176;4.452;2022-07-03T09:21:41;4.85;;;1.10;;
24685;SDS011;12804;51.176;4.452;2022-07-03T09:24:08;2.15;;;1.08;;
24685;SDS011;12804;51.176;4.452;2022-07-03T09:26:35;1.42;;;0.98;;
24685;SDS011;12804;51.176;4.452;2022-07-03T09:29:14;1.45;;;1.05;;
24685;SDS011;12804;51.176;4.452;2022-07-03T09:31:40;1.58;;;0.95;;
24685;SDS011;12804;51.176;4.452;2022-07-03T09:34:06;3.33;;;1.00;;
24685;SDS011;12804;51.176;4.452;2022-07-03T09:36:42;4.03;;;0.65;;
24685;SDS011;12804;51.176;4.452;2022-07-03T09:41:54;1.83;;;0.90;;
24685;SDS011;12804;51.176;4.452;2022-07-03T09:44:36;2.20;;;0.85;;
24685;SDS011;12804;51.176;4.452;2022-07-03T09:47:07;3.80;;;0.93;;
24685;SDS011;12804;51.176;4.452;2022-07-03T09:49:53;4.45;;;1.20;;
24685;SDS011;12804;51.176;4.452;2022-07-03T09:52:32;2.67;;;0.90;;
24685;SDS011;12804;51.176;4.452;2022-07-03T09:57:34;2.63;;;0.90;;
24685;SDS011;12804;51.176;4.452;2022-07-03T10:00:08;3.05;;;0.77;;
24685;SDS011;12804;51.176;4.452;2022-07-03T10:05:31;1.48;;;0.70;;
24685;SDS011;12804;51.176;4.452;2022-07-03T10:07:59;1.25;;;0.60;;
24685;SDS011;12804;51.176;4.452;2022-07-03T10:10:28;2.15;;;0.82;;
24685;SDS011;12804;51.176;4.452;2022-07-03T10:12:58;2.47;;;0.80;;
24685;SDS011;12804;51.176;4.452;2022-07-03T10:15:26;1.70;;;0.70;;
24685;SDS011;12804;51.176;4.452;2022-07-03T10:17:53;1.73;;;0.70;;
24685;SDS011;12804;51.176;4.452;2022-07-03T10:20:29;0.98;;;0.50;;
24685;SDS011;12804;51.176;4.452;2022-07-03T10:22:58;0.93;;;0.50;;
24685;SDS011;12804;51.176;4.452;2022-07-03T10:25:24;2.38;;;0.77;;
24685;SDS011;12804;51.176;4.452;2022-07-03T10:27:50;2.13;;;0.60;;
24685;SDS011;12804;51.176;4.452;2022-07-03T10:30:17;1.42;;;0.50;;
24685;SDS011;12804;51.176;4.452;2022-07-03T10:32:46;1.20;;;0.63;;
24685;SDS011;12804;51.176;4.452;2022-07-03T10:35:23;1.60;;;0.50;;
24685;SDS011;12804;51.176;4.452;2022-07-03T10:43:46;1.80;;;0.52;;
24685;SDS011;12804;51.176;4.452;2022-07-03T10:46:32;1.40;;;0.40;;
24685;SDS011;12804;51.176;4.452;2022-07-03T10:49:05;1.98;;;0.45;;
24685;SDS011;12804;51.176;4.452;2022-07-03T10:51:50;1.23;;;0.50;;
24685;SDS011;12804;51.176;4.452;2022-07-03T11:07:33;1.73;;;0.47;;
24685;SDS011;12804;51.176;4.452;2022-07-03T11:15:45;2.35;;;0.57;;
24685;SDS011;12804;51.176;4.452;2022-07-03T11:25:57;0.95;;;0.43;;
24685;SDS011;12804;51.176;4.452;2022-07-03T11:41:23;2.42;;;0.65;;
24685;SDS011;12804;51.176;4.452;2022-07-03T11:43:51;1.70;;;0.47;;
24685;SDS011;12804;51.176;4.452;2022-07-03T11:46:22;1.75;;;0.40;;
24685;SDS011;12804;51.176;4.452;2022-07-03T11:51:40;1.92;;;0.50;;
24685;SDS011;12804;51.176;4.452;2022-07-03T11:54:07;2.72;;;0.65;;
24685;SDS011;12804;51.176;4.452;2022-07-03T11:56:33;2.28;;;0.50;;
24685;SDS011;12804;51.176;4.452;2022-07-03T11:59:02;3.72;;;0.50;;
24685;SDS011;12804;51.176;4.452;2022-07-03T12:01:30;2.42;;;0.50;;
24685;SDS011;12804;51.176;4.452;2022-07-03T12:06:50;0.68;;;0.45;;
24685;SDS011;12804;51.176;4.452;2022-07-03T12:11:59;1.55;;;0.68;;
24685;SDS011;12804;51.176;4.452;2022-07-03T12:14:36;2.22;;;0.60;;
24685;SDS011;12804;51.176;4.452;2022-07-03T12:17:05;1.83;;;0.68;;
24685;SDS011;12804;51.176;4.452;2022-07-03T12:19:32;0.90;;;0.45;;
24685;SDS011;12804;51.176;4.452;2022-07-03T12:21:58;1.55;;;0.60;;
24685;SDS011;12804;51.176;4.452;2022-07-03T12:24:25;2.65;;;0.50;;
24685;SDS011;12804;51.176;4.452;2022-07-03T12:26:52;1.15;;;0.47;;
24685;SDS011;12804;51.176;4.452;2022-07-03T12:29:17;1.70;;;0.40;;
24685;SDS011;12804;51.176;4.452;2022-07-03T12:31:44;1.35;;;0.50;;
24685;SDS011;12804;51.176;4.452;2022-07-03T12:34:12;1.13;;;0.40;;
24685;SDS011;12804;51.176;4.452;2022-07-03T12:36:39;1.13;;;0.50;;
24685;SDS011;12804;51.176;4.452;2022-07-03T12:39:06;1.17;;;0.57;;
24685;SDS011;12804;51.176;4.452;2022-07-03T12:41:32;0.77;;;0.40;;
24685;SDS011;12804;51.176;4.452;2022-07-03T12:43:58;2.70;;;0.50;;
24685;SDS011;12804;51.176;4.452;2022-07-03T12:46:34;1.67;;;0.40;;
24685;SDS011;12804;51.176;4.452;2022-07-03T12:49:08;0.90;;;0.47;;
24685;SDS011;12804;51.176;4.452;2022-07-03T12:54:21;1.63;;;0.52;;
24685;SDS011;12804;51.176;4.452;2022-07-03T12:57:08;1.20;;;0.40;;
24685;SDS011;12804;51.176;4.452;2022-07-03T13:00:00;3.03;;;0.60;;
24685;SDS011;12804;51.176;4.452;2022-07-03T13:02:34;0.68;;;0.40;;
24685;SDS011;12804;51.176;4.452;2022-07-03T13:07:43;2.17;;;0.52;;
24685;SDS011;12804;51.176;4.452;2022-07-03T13:10:11;1.90;;;0.57;;
24685;SDS011;12804;51.176;4.452;2022-07-03T13:15:20;1.20;;;0.50;;
24685;SDS011;12804;51.176;4.452;2022-07-03T13:17:56;3.10;;;0.38;;
24685;SDS011;12804;51.176;4.452;2022-07-03T13:20:32;0.63;;;0.35;;
24685;SDS011;12804;51.176;4.452;2022-07-03T13:22:59;3.42;;;0.60;;
24685;SDS011;12804;51.176;4.452;2022-07-03T13:25:27;1.25;;;0.40;;
24685;SDS011;12804;51.176;4.452;2022-07-03T13:28:03;2.80;;;0.40;;
24685;SDS011;12804;51.176;4.452;2022-07-03T13:30:32;2.17;;;0.55;;
24685;SDS011;12804;51.176;4.452;2022-07-03T13:32:58;1.77;;;0.50;;
24685;SDS011;12804;51.176;4.452;2022-07-03T13:35:25;2.30;;;0.88;;
24685;SDS011;12804;51.176;4.452;2022-07-03T13:37:50;2.45;;;1.02;;
24685;SDS011;12804;51.176;4.452;2022-07-03T13:40:16;3.85;;;1.10;;
24685;SDS011;12804;51.176;4.452;2022-07-03T13:42:42;3.85;;;0.90;;
24685;SDS011;12804;51.176;4.452;2022-07-03T13:45:08;1.40;;;0.50;;
24685;SDS011;12804;51.176;4.452;2022-07-03T13:47:35;2.17;;;0.70;;
24685;SDS011;12804;51.176;4.452;2022-07-03T13:50:01;2.72;;;0.60;;
24685;SDS011;12804;51.176;4.452;2022-07-03T13:52:28;1.77;;;0.70;;
24685;SDS011;12804;51.176;4.452;2022-07-03T13:54:54;1.83;;;1.00;;
24685;SDS011;12804;51.176;4.452;2022-07-03T13:57:19;1.70;;;0.50;;
24685;SDS011;12804;51.176;4.452;2022-07-03T13:59:45;4.07;;;0.82;;
24685;SDS011;12804;51.176;4.452;2022-07-03T14:02:12;3.60;;;0.65;;
24685;SDS011;12804;51.176;4.452;2022-07-03T14:04:38;4.70;;;1.00;;
24685;SDS011;12804;51.176;4.452;2022-07-03T14:07:04;1.58;;;0.60;;
24685;SDS011;12804;51.176;4.452;2022-07-03T14:09:30;1.60;;;0.70;;
24685;SDS011;12804;51.176;4.452;2022-07-03T14:11:56;1.13;;;0.57;;
24685;SDS011;12804;51.176;4.452;2022-07-03T14:14:22;3.60;;;0.70;;
24685;SDS011;12804;51.176;4.452;2022-07-03T14:16:47;3.20;;;0.88;;
24685;SDS011;12804;51.176;4.452;2022-07-03T14:19:13;3.10;;;0.80;;
24685;SDS011;12804;51.176;4.452;2022-07-03T14:21:39;2.25;;;0.60;;
24685;SDS011;12804;51.176;4.452;2022-07-03T14:24:05;2.88;;;0.70;;
24685;SDS011;12804;51.176;4.452;2022-07-03T14:26:31;2.58;;;0.68;;
24685;SDS011;12804;51.176;4.452;2022-07-03T14:29:15;1.85;;;0.90;;
24685;SDS011;12804;51.176;4.452;2022-07-03T14:31:59;1.17;;;0.52;;
24685;SDS011;12804;51.176;4.452;2022-07-03T14:34:44;1.83;;;0.68;;
24685;SDS011;12804;51.176;4.452;2022-07-03T14:37:10;1.08;;;0.40;;
24685;SDS011;12804;51.176;4.452;2022-07-03T14:39:36;2.58;;;0.60;;
24685;SDS011;12804;51.176;4.452;2022-07-03T14:42:02;0.45;;;0.30;;
24685;SDS011;12804;51.176;4.452;2022-07-03T14:44:28;3.22;;;0.50;;
24685;SDS011;12804;51.176;4.452;2022-07-03T14:46:54;1.88;;;0.57;;
24685;SDS011;12804;51.176;4.452;2022-07-03T14:49:20;2.67;;;0.50;;
24685;SDS011;12804;51.176;4.452;2022-07-03T14:51:46;1.88;;;0.50;;
24685;SDS011;12804;51.176;4.452;2022-07-03T14:54:19;2.17;;;0.50;;
24685;SDS011;12804;51.176;4.452;2022-07-03T14:56:55;1.58;;;0.55;;
24685;SDS011;12804;51.176;4.452;2022-07-03T15:01:57;2.58;;;0.88;;
24685;SDS011;12804;51.176;4.452;2022-07-03T15:07:02;2.35;;;0.50;;
24685;SDS011;12804;51.176;4.452;2022-07-03T15:09:32;2.47;;;0.70;;
24685;SDS011;12804;51.176;4.452;2022-07-03T15:12:02;3.60;;;0.63;;
24685;SDS011;12804;51.176;4.452;2022-07-03T15:14:50;1.42;;;0.70;;
24685;SDS011;12804;51.176;4.452;2022-07-03T15:17:19;2.28;;;0.73;;
24685;SDS011;12804;51.176;4.452;2022-07-03T15:19:47;2.70;;;0.73;;
24685;SDS011;12804;51.176;4.452;2022-07-03T15:22:15;5.25;;;0.63;;
24685;SDS011;12804;51.176;4.452;2022-07-03T15:24:41;3.63;;;0.57;;
24685;SDS011;12804;51.176;4.452;2022-07-03T15:27:07;3.28;;;0.60;;
24685;SDS011;12804;51.176;4.452;2022-07-03T15:29:34;2.60;;;0.40;;
24685;SDS011;12804;51.176;4.452;2022-07-03T15:32:01;2.35;;;0.52;;
24685;SDS011;12804;51.176;4.452;2022-07-03T15:34:29;1.08;;;0.60;;
24685;SDS011;12804;51.176;4.452;2022-07-03T15:37:02;2.63;;;0.60;;
24685;SDS011;12804;51.176;4.452;2022-07-03T15:39:33;1.80;;;0.40;;
24685;SDS011;12804;51.176;4.452;2022-07-03T15:42:12;1.67;;;0.50;;
24685;SDS011;12804;51.176;4.452;2022-07-03T15:44:52;1.77;;;0.53;;
24685;SDS011;12804;51.176;4.452;2022-07-03T15:47:31;1.88;;;0.70;;
24685;SDS011;12804;51.176;4.452;2022-07-03T15:50:01;2.40;;;0.55;;
24685;SDS011;12804;51.176;4.452;2022-07-03T15:52:28;1.77;;;0.50;;
24685;SDS011;12804;51.176;4.452;2022-07-03T16:00:03;1.50;;;0.50;;
24685;SDS011;12804;51.176;4.452;2022-07-03T16:02:44;1.90;;;0.60;;
24685;SDS011;12804;51.176;4.452;2022-07-03T16:05:32;2.53;;;0.63;;
24685;SDS011;12804;51.176;4.452;2022-07-03T16:08:07;2.65;;;0.52;;
24685;SDS011;12804;51.176;4.452;2022-07-03T16:10:35;2.58;;;0.60;;
24685;SDS011;12804;51.176;4.452;2022-07-03T16:13:02;1.77;;;0.50;;
24685;SDS011;12804;51.176;4.452;2022-07-03T16:15:34;1.10;;;0.45;;
24685;SDS011;12804;51.176;4.452;2022-07-03T16:18:03;3.55;;;0.50;;
24685;SDS011;12804;51.176;4.452;2022-07-03T16:20:30;2.25;;;0.50;;
24685;SDS011;12804;51.176;4.452;2022-07-03T16:22:59;1.00;;;0.50;;
24685;SDS011;12804;51.176;4.452;2022-07-03T16:25:28;0.95;;;0.50;;
24685;SDS011;12804;51.176;4.452;2022-07-03T16:28:00;1.50;;;0.50;;
24685;SDS011;12804;51.176;4.452;2022-07-03T16:30:29;2.30;;;0.50;;
24685;SDS011;12804;51.176;4.452;2022-07-03T16:32:55;0.95;;;0.50;;
24685;SDS011;12804;51.176;4.452;2022-07-03T16:35:34;1.88;;;0.60;;
24685;SDS011;12804;51.176;4.452;2022-07-03T16:38:02;1.88;;;0.50;;
24685;SDS011;12804;51.176;4.452;2022-07-03T16:40:30;3.67;;;0.57;;
24685;SDS011;12804;51.176;4.452;2022-07-03T16:42:57;1.55;;;0.57;;
24685;SDS011;12804;51.176;4.452;2022-07-03T16:45:25;1.30;;;0.55;;
24685;SDS011;12804;51.176;4.452;2022-07-03T16:47:54;3.15;;;0.70;;